sensor_id;sensor_type;location;lat;lon;timestamp;temperature;humidity
1359;DHT22;673;48.098;14.422;2023-04-29T00:01:20;9.60;99.90
1359;DHT22;673;48.098;14.422;2023-04-29T00:03:48;9.60;99.90
1359;DHT22;673;48.098;14.422;2023-04-29T00:06:15;9.70;99.90
1359;DHT22;673;48.098;14.422;2023-04-29T00:08:42;9.70;99.90
1359;DHT22;673;48.098;14.422;2023-04-29T00:11:09;9.70;99.90
1359;DHT22;673;48.098;14.422;2023-04-29T00:13:37;9.80;99.90
1359;DHT22;673;48.098;14.422;2023-04-29T00:16:06;9.70;99.90
1359;DHT22;673;48.098;14.422;2023-04-29T00:18:34;9.70;99.90
1359;DHT22;673;48.098;14.422;2023-04-29T00:21:03;9.70;99.90
1359;DHT22;673;48.098;14.422;2023-04-29T00:23:31;9.60;99.90
1359;DHT22;673;48.098;14.422;2023-04-29T00:25:59;9.60;99.90
1359;DHT22;673;48.098;14.422;2023-04-29T00:28:26;9.60;99.90
1359;DHT22;673;48.098;14.422;2023-04-29T00:30:52;9.70;99.90
1359;DHT22;673;48.098;14.422;2023-04-29T00:33:20;9.70;99.90
1359;DHT22;673;48.098;14.422;2023-04-29T00:35:47;9.70;99.90
1359;DHT22;673;48.098;14.422;2023-04-29T00:38:15;9.70;99.90
1359;DHT22;673;48.098;14.422;2023-04-29T00:40:43;9.70;99.90
1359;DHT22;673;48.098;14.422;2023-04-29T00:43:10;9.80;99.90
1359;DHT22;673;48.098;14.422;2023-04-29T00:45:38;9.80;99.90
1359;DHT22;673;48.098;14.422;2023-04-29T00:48:05;9.80;99.90
1359;DHT22;673;48.098;14.422;2023-04-29T00:50:32;9.80;99.90
1359;DHT22;673;48.098;14.422;2023-04-29T00:53:00;9.80;99.90
1359;DHT22;673;48.098;14.422;2023-04-29T00:55:29;9.70;99.90
1359;DHT22;673;48.098;14.422;2023-04-29T00:57:56;9.70;99.90
1359;DHT22;673;48.098;14.422;2023-04-29T01:00:23;9.70;99.90
1359;DHT22;673;48.098;14.422;2023-04-29T01:02:51;9.70;99.90
1359;DHT22;673;48.098;14.422;2023-04-29T01:05:20;9.70;99.90
1359;DHT22;673;48.098;14.422;2023-04-29T01:08:01;9.70;99.90
1359;DHT22;673;48.098;14.422;2023-04-29T01:10:37;9.70;99.90
1359;DHT22;673;48.098;14.422;2023-04-29T01:13:08;9.80;99.90
1359;DHT22;673;48.098;14.422;2023-04-29T01:15:43;9.80;99.90
1359;DHT22;673;48.098;14.422;2023-04-29T01:18:19;9.70;99.90
1359;DHT22;673;48.098;14.422;2023-04-29T01:20:48;9.70;99.90
1359;DHT22;673;48.098;14.422;2023-04-29T01:23:15;9.80;99.90
1359;DHT22;673;48.098;14.422;2023-04-29T01:25:43;9.80;99.90
1359;DHT22;673;48.098;14.422;2023-04-29T01:28:17;9.90;99.90
1359;DHT22;673;48.098;14.422;2023-04-29T01:30:54;9.80;99.90
1359;DHT22;673;48.098;14.422;2023-04-29T01:33:28;9.90;99.90
1359;DHT22;673;48.098;14.422;2023-04-29T01:36:07;9.80;99.90
1359;DHT22;673;48.098;14.422;2023-04-29T01:38:42;9.80;99.90
1359;DHT22;673;48.098;14.422;2023-04-29T01:41:15;9.80;99.90
1359;DHT22;673;48.098;14.422;2023-04-29T01:43:46;9.70;99.90
1359;DHT22;673;48.098;14.422;2023-04-29T01:46:16;9.70;99.90
1359;DHT22;673;48.098;14.422;2023-04-29T01:48:44;9.60;99.90
1359;DHT22;673;48.098;14.422;2023-04-29T01:51:11;9.40;99.90
1359;DHT22;673;48.098;14.422;2023-04-29T01:53:38;9.30;99.90
1359;DHT22;673;48.098;14.422;2023-04-29T01:56:09;9.20;99.90
1359;DHT22;673;48.098;14.422;2023-04-29T01:58:37;9.10;99.90
1359;DHT22;673;48.098;14.422;2023-04-29T02:01:04;9.10;99.90
1359;DHT22;673;48.098;14.422;2023-04-29T02:03:31;9.10;99.90
1359;DHT22;673;48.098;14.422;2023-04-29T02:05:58;9.10;99.90
1359;DHT22;673;48.098;14.422;2023-04-29T02:08:25;9.10;99.90
1359;DHT22;673;48.098;14.422;2023-04-29T02:10:53;9.00;99.90
1359;DHT22;673;48.098;14.422;2023-04-29T02:13:20;9.00;99.90
1359;DHT22;673;48.098;14.422;2023-04-29T02:15:48;9.00;99.90
1359;DHT22;673;48.098;14.422;2023-04-29T02:18:15;9.00;99.90
1359;DHT22;673;48.098;14.422;2023-04-29T02:20:43;9.10;99.90
1359;DHT22;673;48.098;14.422;2023-04-29T02:23:09;9.10;99.90
1359;DHT22;673;48.098;14.422;2023-04-29T02:25:36;9.20;99.90
1359;DHT22;673;48.098;14.422;2023-04-29T02:28:04;9.10;99.90
1359;DHT22;673;48.098;14.422;2023-04-29T02:30:31;9.10;99.90
1359;DHT22;673;48.098;14.422;2023-04-29T02:32:59;9.20;99.90
1359;DHT22;673;48.098;14.422;2023-04-29T02:35:27;9.20;99.90
1359;DHT22;673;48.098;14.422;2023-04-29T02:37:54;9.30;99.90
1359;DHT22;673;48.098;14.422;2023-04-29T02:40:22;9.30;99.90
1359;DHT22;673;48.098;14.422;2023-04-29T02:42:50;9.30;99.90
1359;DHT22;673;48.098;14.422;2023-04-29T02:45:17;9.40;99.90
1359;DHT22;673;48.098;14.422;2023-04-29T02:47:44;9.40;99.90
1359;DHT22;673;48.098;14.422;2023-04-29T02:50:12;9.30;99.90
1359;DHT22;673;48.098;14.422;2023-04-29T02:52:39;9.20;99.90
1359;DHT22;673;48.098;14.422;2023-04-29T02:55:07;9.20;99.90
1359;DHT22;673;48.098;14.422;2023-04-29T02:57:35;9.10;99.90
1359;DHT22;673;48.098;14.422;2023-04-29T03:00:04;9.10;99.90
1359;DHT22;673;48.098;14.422;2023-04-29T03:02:31;9.00;99.90
1359;DHT22;673;48.098;14.422;2023-04-29T03:04:58;9.00;99.90
1359;DHT22;673;48.098;14.422;2023-04-29T03:07:26;9.10;99.90
1359;DHT22;673;48.098;14.422;2023-04-29T03:09:54;9.10;99.90
1359;DHT22;673;48.098;14.422;2023-04-29T03:12:21;9.20;99.90
1359;DHT22;673;48.098;14.422;2023-04-29T03:14:48;9.30;99.90
1359;DHT22;673;48.098;14.422;2023-04-29T03:17:16;9.20;99.90
1359;DHT22;673;48.098;14.422;2023-04-29T03:19:43;9.10;99.90
1359;DHT22;673;48.098;14.422;2023-04-29T03:22:10;9.00;99.90
1359;DHT22;673;48.098;14.422;2023-04-29T03:24:38;9.00;99.90
1359;DHT22;673;48.098;14.422;2023-04-29T03:27:05;8.90;99.90
1359;DHT22;673;48.098;14.422;2023-04-29T03:29:32;8.90;99.90
1359;DHT22;673;48.098;14.422;2023-04-29T03:31:59;8.80;99.90
1359;DHT22;673;48.098;14.422;2023-04-29T03:34:27;8.70;99.90
1359;DHT22;673;48.098;14.422;2023-04-29T03:36:54;8.70;99.90
1359;DHT22;673;48.098;14.422;2023-04-29T03:39:22;8.60;99.90
1359;DHT22;673;48.098;14.422;2023-04-29T03:41:50;8.60;99.90
1359;DHT22;673;48.098;14.422;2023-04-29T03:44:17;8.60;99.90
1359;DHT22;673;48.098;14.422;2023-04-29T03:46:44;8.70;99.90
1359;DHT22;673;48.098;14.422;2023-04-29T03:49:11;8.80;99.90
1359;DHT22;673;48.098;14.422;2023-04-29T03:51:38;8.70;99.90
1359;DHT22;673;48.098;14.422;2023-04-29T03:54:05;8.80;99.90
1359;DHT22;673;48.098;14.422;2023-04-29T03:56:32;8.90;99.90
1359;DHT22;673;48.098;14.422;2023-04-29T03:59:00;8.90;99.90
1359;DHT22;673;48.098;14.422;2023-04-29T04:01:27;9.10;99.90
1359;DHT22;673;48.098;14.422;2023-04-29T04:03:54;9.10;99.90
1359;DHT22;673;48.098;14.422;2023-04-29T04:06:21;9.20;99.90
1359;DHT22;673;48.098;14.422;2023-04-29T04:08:48;9.30;99.90
1359;DHT22;673;48.098;14.422;2023-04-29T04:11:15;9.40;99.90
1359;DHT22;673;48.098;14.422;2023-04-29T04:13:42;9.50;99.90
1359;DHT22;673;48.098;14.422;2023-04-29T04:16:11;9.60;99.90
1359;DHT22;673;48.098;14.422;2023-04-29T04:18:38;9.80;99.90
1359;DHT22;673;48.098;14.422;2023-04-29T04:21:05;9.80;99.90
1359;DHT22;673;48.098;14.422;2023-04-29T04:23:32;9.90;99.90
1359;DHT22;673;48.098;14.422;2023-04-29T04:25:59;9.90;99.90
1359;DHT22;673;48.098;14.422;2023-04-29T04:28:26;9.90;99.90
1359;DHT22;673;48.098;14.422;2023-04-29T04:30:53;9.90;99.90
1359;DHT22;673;48.098;14.422;2023-04-29T04:33:21;10.00;99.90
1359;DHT22;673;48.098;14.422;2023-04-29T04:35:48;10.00;99.90
1359;DHT22;673;48.098;14.422;2023-04-29T04:38:15;10.00;99.90
1359;DHT22;673;48.098;14.422;2023-04-29T04:40:43;10.00;99.90
1359;DHT22;673;48.098;14.422;2023-04-29T04:43:10;10.10;99.90
1359;DHT22;673;48.098;14.422;2023-04-29T04:45:37;10.30;99.90
1359;DHT22;673;48.098;14.422;2023-04-29T04:48:05;10.30;99.90
1359;DHT22;673;48.098;14.422;2023-04-29T04:50:35;10.30;99.90
1359;DHT22;673;48.098;14.422;2023-04-29T04:53:02;10.40;99.90
1359;DHT22;673;48.098;14.422;2023-04-29T04:55:31;10.50;99.90
1359;DHT22;673;48.098;14.422;2023-04-29T04:57:58;10.50;99.90
1359;DHT22;673;48.098;14.422;2023-04-29T05:00:26;10.60;99.90
1359;DHT22;673;48.098;14.422;2023-04-29T05:02:58;10.80;99.90
1359;DHT22;673;48.098;14.422;2023-04-29T05:05:27;10.90;99.90
1359;DHT22;673;48.098;14.422;2023-04-29T05:07:55;11.00;99.90
1359;DHT22;673;48.098;14.422;2023-04-29T05:10:22;11.10;99.90
1359;DHT22;673;48.098;14.422;2023-04-29T05:12:51;11.30;99.90
1359;DHT22;673;48.098;14.422;2023-04-29T05:15:18;11.50;99.90
1359;DHT22;673;48.098;14.422;2023-04-29T05:17:45;11.70;99.90
1359;DHT22;673;48.098;14.422;2023-04-29T05:20:12;11.90;99.90
1359;DHT22;673;48.098;14.422;2023-04-29T05:22:39;11.80;99.90
1359;DHT22;673;48.098;14.422;2023-04-29T05:25:09;11.90;99.90
1359;DHT22;673;48.098;14.422;2023-04-29T05:27:36;12.10;99.90
1359;DHT22;673;48.098;14.422;2023-04-29T05:30:09;12.30;99.90
1359;DHT22;673;48.098;14.422;2023-04-29T05:32:37;12.30;99.90
1359;DHT22;673;48.098;14.422;2023-04-29T05:35:04;12.50;99.90
1359;DHT22;673;48.098;14.422;2023-04-29T05:37:31;12.60;99.90
1359;DHT22;673;48.098;14.422;2023-04-29T05:39:59;12.80;99.90
1359;DHT22;673;48.098;14.422;2023-04-29T05:42:27;12.90;99.90
1359;DHT22;673;48.098;14.422;2023-04-29T05:44:56;12.90;99.90
1359;DHT22;673;48.098;14.422;2023-04-29T05:47:23;12.80;99.90
1359;DHT22;673;48.098;14.422;2023-04-29T05:49:49;12.70;99.90
1359;DHT22;673;48.098;14.422;2023-04-29T05:52:19;12.50;99.90
1359;DHT22;673;48.098;14.422;2023-04-29T05:54:46;12.50;99.90
1359;DHT22;673;48.098;14.422;2023-04-29T05:57:13;12.70;99.90
1359;DHT22;673;48.098;14.422;2023-04-29T05:59:41;12.80;99.90
1359;DHT22;673;48.098;14.422;2023-04-29T06:02:09;13.10;99.90
1359;DHT22;673;48.098;14.422;2023-04-29T06:04:37;13.20;99.90
1359;DHT22;673;48.098;14.422;2023-04-29T06:07:05;13.40;99.90
1359;DHT22;673;48.098;14.422;2023-04-29T06:09:34;13.60;99.90
1359;DHT22;673;48.098;14.422;2023-04-29T06:12:01;13.50;99.90
1359;DHT22;673;48.098;14.422;2023-04-29T06:14:28;13.50;99.90
1359;DHT22;673;48.098;14.422;2023-04-29T06:16:57;13.70;99.90
1359;DHT22;673;48.098;14.422;2023-04-29T06:19:24;13.80;99.90
1359;DHT22;673;48.098;14.422;2023-04-29T06:21:51;13.70;99.90
1359;DHT22;673;48.098;14.422;2023-04-29T06:24:18;13.90;99.90
1359;DHT22;673;48.098;14.422;2023-04-29T06:26:45;14.00;99.90
1359;DHT22;673;48.098;14.422;2023-04-29T06:29:13;13.90;99.90
1359;DHT22;673;48.098;14.422;2023-04-29T06:31:40;14.00;99.90
1359;DHT22;673;48.098;14.422;2023-04-29T06:34:09;14.20;99.90
1359;DHT22;673;48.098;14.422;2023-04-29T06:36:37;14.10;99.90
1359;DHT22;673;48.098;14.422;2023-04-29T06:39:04;13.90;99.90
1359;DHT22;673;48.098;14.422;2023-04-29T06:41:31;13.90;99.90
1359;DHT22;673;48.098;14.422;2023-04-29T06:43:59;13.70;99.90
1359;DHT22;673;48.098;14.422;2023-04-29T06:46:26;13.70;99.90
1359;DHT22;673;48.098;14.422;2023-04-29T06:48:53;13.60;99.90
1359;DHT22;673;48.098;14.422;2023-04-29T06:51:22;13.40;99.90
1359;DHT22;673;48.098;14.422;2023-04-29T06:53:49;13.30;99.90
1359;DHT22;673;48.098;14.422;2023-04-29T06:56:16;13.30;99.90
1359;DHT22;673;48.098;14.422;2023-04-29T06:58:44;13.40;99.90
1359;DHT22;673;48.098;14.422;2023-04-29T07:01:11;13.60;99.90
1359;DHT22;673;48.098;14.422;2023-04-29T07:03:38;13.90;99.90
1359;DHT22;673;48.098;14.422;2023-04-29T07:06:05;14.00;99.90
1359;DHT22;673;48.098;14.422;2023-04-29T07:08:33;13.90;99.90
1359;DHT22;673;48.098;14.422;2023-04-29T07:11:00;14.00;99.90
1359;DHT22;673;48.098;14.422;2023-04-29T07:13:28;14.30;99.90
1359;DHT22;673;48.098;14.422;2023-04-29T07:15:55;14.10;99.90
1359;DHT22;673;48.098;14.422;2023-04-29T07:18:22;14.40;99.90
1359;DHT22;673;48.098;14.422;2023-04-29T07:20:49;14.40;99.90
1359;DHT22;673;48.098;14.422;2023-04-29T07:23:17;14.50;99.90
1359;DHT22;673;48.098;14.422;2023-04-29T07:25:45;14.20;99.90
1359;DHT22;673;48.098;14.422;2023-04-29T07:28:12;14.30;99.90
1359;DHT22;673;48.098;14.422;2023-04-29T07:30:39;14.10;99.90
1359;DHT22;673;48.098;14.422;2023-04-29T07:33:06;14.00;99.90
1359;DHT22;673;48.098;14.422;2023-04-29T07:35:34;14.00;99.90
1359;DHT22;673;48.098;14.422;2023-04-29T07:38:00;14.20;99.90
1359;DHT22;673;48.098;14.422;2023-04-29T07:40:27;14.30;99.90
1359;DHT22;673;48.098;14.422;2023-04-29T07:42:56;14.20;99.90
1359;DHT22;673;48.098;14.422;2023-04-29T07:45:23;14.60;99.90
1359;DHT22;673;48.098;14.422;2023-04-29T07:47:50;14.60;99.90
1359;DHT22;673;48.098;14.422;2023-04-29T07:50:18;14.70;99.90
1359;DHT22;673;48.098;14.422;2023-04-29T07:52:45;14.70;99.90
1359;DHT22;673;48.098;14.422;2023-04-29T07:55:12;14.70;99.90
1359;DHT22;673;48.098;14.422;2023-04-29T07:57:39;14.70;99.90
1359;DHT22;673;48.098;14.422;2023-04-29T08:00:09;14.80;99.90
1359;DHT22;673;48.098;14.422;2023-04-29T08:02:36;15.00;99.90
1359;DHT22;673;48.098;14.422;2023-04-29T08:05:04;15.20;99.90
1359;DHT22;673;48.098;14.422;2023-04-29T08:07:31;15.70;99.90
1359;DHT22;673;48.098;14.422;2023-04-29T08:09:58;15.70;99.90
1359;DHT22;673;48.098;14.422;2023-04-29T08:12:25;15.60;99.90
1359;DHT22;673;48.098;14.422;2023-04-29T08:14:52;15.40;99.90
1359;DHT22;673;48.098;14.422;2023-04-29T08:17:20;15.10;99.90
1359;DHT22;673;48.098;14.422;2023-04-29T08:19:47;15.30;99.90
1359;DHT22;673;48.098;14.422;2023-04-29T08:22:14;15.40;99.90
1359;DHT22;673;48.098;14.422;2023-04-29T08:24:41;15.30;99.90
1359;DHT22;673;48.098;14.422;2023-04-29T08:27:09;15.40;99.90
1359;DHT22;673;48.098;14.422;2023-04-29T08:29:36;15.20;99.90
1359;DHT22;673;48.098;14.422;2023-04-29T08:32:04;15.40;99.90
1359;DHT22;673;48.098;14.422;2023-04-29T08:34:32;15.70;99.90
1359;DHT22;673;48.098;14.422;2023-04-29T08:37:01;15.80;99.90
1359;DHT22;673;48.098;14.422;2023-04-29T08:39:28;15.80;99.90
1359;DHT22;673;48.098;14.422;2023-04-29T08:41:55;15.80;99.90
1359;DHT22;673;48.098;14.422;2023-04-29T08:44:24;15.70;99.90
1359;DHT22;673;48.098;14.422;2023-04-29T08:46:51;15.70;99.90
1359;DHT22;673;48.098;14.422;2023-04-29T08:49:18;15.50;99.90
1359;DHT22;673;48.098;14.422;2023-04-29T08:51:48;15.40;99.90
1359;DHT22;673;48.098;14.422;2023-04-29T08:54:16;15.30;99.90
1359;DHT22;673;48.098;14.422;2023-04-29T08:56:44;15.20;99.90
1359;DHT22;673;48.098;14.422;2023-04-29T08:59:13;15.10;99.90
1359;DHT22;673;48.098;14.422;2023-04-29T09:01:42;15.00;99.90
1359;DHT22;673;48.098;14.422;2023-04-29T09:04:18;15.30;99.90
1359;DHT22;673;48.098;14.422;2023-04-29T09:06:48;15.20;99.90
1359;DHT22;673;48.098;14.422;2023-04-29T09:09:17;15.00;99.90
1359;DHT22;673;48.098;14.422;2023-04-29T09:11:44;15.00;99.90
1359;DHT22;673;48.098;14.422;2023-04-29T09:14:12;15.30;99.90
1359;DHT22;673;48.098;14.422;2023-04-29T09:16:40;15.40;99.90
1359;DHT22;673;48.098;14.422;2023-04-29T09:19:07;15.60;99.90
1359;DHT22;673;48.098;14.422;2023-04-29T09:21:34;16.20;99.90
1359;DHT22;673;48.098;14.422;2023-04-29T09:24:03;16.60;99.90
1359;DHT22;673;48.098;14.422;2023-04-29T09:26:40;16.80;99.90
1359;DHT22;673;48.098;14.422;2023-04-29T09:29:08;17.10;99.90
1359;DHT22;673;48.098;14.422;2023-04-29T09:31:38;17.10;99.90
1359;DHT22;673;48.098;14.422;2023-04-29T09:34:06;16.80;99.90
1359;DHT22;673;48.098;14.422;2023-04-29T09:36:38;17.00;99.90
1359;DHT22;673;48.098;14.422;2023-04-29T09:39:07;17.00;99.90
1359;DHT22;673;48.098;14.422;2023-04-29T09:41:41;16.90;99.90
1359;DHT22;673;48.098;14.422;2023-04-29T09:44:09;16.60;99.90
1359;DHT22;673;48.098;14.422;2023-04-29T09:46:36;17.00;99.90
1359;DHT22;673;48.098;14.422;2023-04-29T09:49:04;16.90;99.90
1359;DHT22;673;48.098;14.422;2023-04-29T09:51:52;16.90;99.90
1359;DHT22;673;48.098;14.422;2023-04-29T09:54:22;16.80;99.90
1359;DHT22;673;48.098;14.422;2023-04-29T09:56:51;17.00;99.90
1359;DHT22;673;48.098;14.422;2023-04-29T09:59:18;16.90;99.90
1359;DHT22;673;48.098;14.422;2023-04-29T10:01:47;16.90;99.90
1359;DHT22;673;48.098;14.422;2023-04-29T10:04:18;17.30;99.90
1359;DHT22;673;48.098;14.422;2023-04-29T10:06:49;17.70;99.90
1359;DHT22;673;48.098;14.422;2023-04-29T10:09:16;17.70;99.90
1359;DHT22;673;48.098;14.422;2023-04-29T10:11:45;17.10;99.90
1359;DHT22;673;48.098;14.422;2023-04-29T10:14:14;16.90;99.90
1359;DHT22;673;48.098;14.422;2023-04-29T10:16:46;17.00;99.90
1359;DHT22;673;48.098;14.422;2023-04-29T10:19:24;16.90;99.90
1359;DHT22;673;48.098;14.422;2023-04-29T10:21:53;17.10;99.90
1359;DHT22;673;48.098;14.422;2023-04-29T10:24:21;17.40;99.90
1359;DHT22;673;48.098;14.422;2023-04-29T10:26:50;17.30;99.90
1359;DHT22;673;48.098;14.422;2023-04-29T10:29:18;17.30;99.90
1359;DHT22;673;48.098;14.422;2023-04-29T10:31:48;17.60;99.90
1359;DHT22;673;48.098;14.422;2023-04-29T10:34:16;17.10;99.90
1359;DHT22;673;48.098;14.422;2023-04-29T10:36:44;17.20;99.90
1359;DHT22;673;48.098;14.422;2023-04-29T10:39:25;17.60;99.90
1359;DHT22;673;48.098;14.422;2023-04-29T10:41:55;18.20;99.90
1359;DHT22;673;48.098;14.422;2023-04-29T10:44:22;18.30;99.90
1359;DHT22;673;48.098;14.422;2023-04-29T10:47:19;17.70;99.90
1359;DHT22;673;48.098;14.422;2023-04-29T10:50:01;17.30;99.90
1359;DHT22;673;48.098;14.422;2023-04-29T10:52:50;17.20;99.90
1359;DHT22;673;48.098;14.422;2023-04-29T10:55:17;17.70;99.90
1359;DHT22;673;48.098;14.422;2023-04-29T10:57:46;17.90;99.90
1359;DHT22;673;48.098;14.422;2023-04-29T11:00:21;17.80;99.90
1359;DHT22;673;48.098;14.422;2023-04-29T11:02:48;17.20;99.90
1359;DHT22;673;48.098;14.422;2023-04-29T11:05:28;17.00;99.90
1359;DHT22;673;48.098;14.422;2023-04-29T11:08:08;17.20;99.90
1359;DHT22;673;48.098;14.422;2023-04-29T11:10:40;17.60;99.90
1359;DHT22;673;48.098;14.422;2023-04-29T11:13:25;17.60;99.90
1359;DHT22;673;48.098;14.422;2023-04-29T11:15:56;17.60;99.90
1359;DHT22;673;48.098;14.422;2023-04-29T11:18:29;17.90;99.90
1359;DHT22;673;48.098;14.422;2023-04-29T11:21:11;18.30;99.90
1359;DHT22;673;48.098;14.422;2023-04-29T11:23:39;18.50;99.90
1359;DHT22;673;48.098;14.422;2023-04-29T11:26:07;18.80;99.90
1359;DHT22;673;48.098;14.422;2023-04-29T11:28:35;18.70;99.90
1359;DHT22;673;48.098;14.422;2023-04-29T11:31:03;18.30;99.90
1359;DHT22;673;48.098;14.422;2023-04-29T11:33:31;18.10;99.90
1359;DHT22;673;48.098;14.422;2023-04-29T11:35:59;18.20;99.90
1359;DHT22;673;48.098;14.422;2023-04-29T11:38:26;18.30;99.90
1359;DHT22;673;48.098;14.422;2023-04-29T11:40:54;18.20;99.90
1359;DHT22;673;48.098;14.422;2023-04-29T11:43:23;18.10;99.90
1359;DHT22;673;48.098;14.422;2023-04-29T11:45:52;18.20;99.90
1359;DHT22;673;48.098;14.422;2023-04-29T11:48:19;18.60;99.90
1359;DHT22;673;48.098;14.422;2023-04-29T11:50:48;18.80;99.90
1359;DHT22;673;48.098;14.422;2023-04-29T11:53:16;18.90;99.90
1359;DHT22;673;48.098;14.422;2023-04-29T11:55:45;19.00;99.90
1359;DHT22;673;48.098;14.422;2023-04-29T11:58:14;19.00;99.90
1359;DHT22;673;48.098;14.422;2023-04-29T12:00:41;18.60;99.90
1359;DHT22;673;48.098;14.422;2023-04-29T12:03:14;18.60;99.90
1359;DHT22;673;48.098;14.422;2023-04-29T12:05:45;18.90;99.90
1359;DHT22;673;48.098;14.422;2023-04-29T12:08:13;18.80;99.90
1359;DHT22;673;48.098;14.422;2023-04-29T12:10:40;18.70;99.90
1359;DHT22;673;48.098;14.422;2023-04-29T12:13:07;18.80;99.90
1359;DHT22;673;48.098;14.422;2023-04-29T12:15:35;18.10;99.90
1359;DHT22;673;48.098;14.422;2023-04-29T12:18:03;18.20;99.90
1359;DHT22;673;48.098;14.422;2023-04-29T12:20:31;18.80;99.90
1359;DHT22;673;48.098;14.422;2023-04-29T12:23:10;18.60;99.90
1359;DHT22;673;48.098;14.422;2023-04-29T12:25:37;18.70;99.90
1359;DHT22;673;48.098;14.422;2023-04-29T12:28:10;19.20;99.90
1359;DHT22;673;48.098;14.422;2023-04-29T12:30:37;19.40;99.90
1359;DHT22;673;48.098;14.422;2023-04-29T12:33:05;19.50;99.90
1359;DHT22;673;48.098;14.422;2023-04-29T12:35:35;19.60;98.80
1359;DHT22;673;48.098;14.422;2023-04-29T12:38:03;19.90;99.90
1359;DHT22;673;48.098;14.422;2023-04-29T12:40:31;19.70;99.30
1359;DHT22;673;48.098;14.422;2023-04-29T12:43:06;19.30;97.70
1359;DHT22;673;48.098;14.422;2023-04-29T12:45:33;19.60;99.90
1359;DHT22;673;48.098;14.422;2023-04-29T12:48:02;20.00;97.90
1359;DHT22;673;48.098;14.422;2023-04-29T12:50:30;19.70;96.20
1359;DHT22;673;48.098;14.422;2023-04-29T12:53:00;19.10;96.10
1359;DHT22;673;48.098;14.422;2023-04-29T12:55:28;19.00;98.10
1359;DHT22;673;48.098;14.422;2023-04-29T12:57:55;19.30;98.20
1359;DHT22;673;48.098;14.422;2023-04-29T13:00:22;19.80;99.40
1359;DHT22;673;48.098;14.422;2023-04-29T13:02:49;19.70;97.40
1359;DHT22;673;48.098;14.422;2023-04-29T13:05:16;19.90;96.70
1359;DHT22;673;48.098;14.422;2023-04-29T13:07:43;20.40;98.30
1359;DHT22;673;48.098;14.422;2023-04-29T13:10:12;20.60;97.30
1359;DHT22;673;48.098;14.422;2023-04-29T13:12:39;20.80;97.70
1359;DHT22;673;48.098;14.422;2023-04-29T13:15:07;20.80;96.10
1359;DHT22;673;48.098;14.422;2023-04-29T13:17:36;20.70;93.90
1359;DHT22;673;48.098;14.422;2023-04-29T13:20:04;20.40;94.50
1359;DHT22;673;48.098;14.422;2023-04-29T13:22:31;19.80;96.00
1359;DHT22;673;48.098;14.422;2023-04-29T13:24:58;20.20;96.30
1359;DHT22;673;48.098;14.422;2023-04-29T13:27:26;20.00;96.10
1359;DHT22;673;48.098;14.422;2023-04-29T13:29:54;20.40;98.80
1359;DHT22;673;48.098;14.422;2023-04-29T13:32:21;20.60;97.90
1359;DHT22;673;48.098;14.422;2023-04-29T13:34:49;20.80;98.40
1359;DHT22;673;48.098;14.422;2023-04-29T13:37:16;21.50;98.10
1359;DHT22;673;48.098;14.422;2023-04-29T13:39:44;22.00;97.30
1359;DHT22;673;48.098;14.422;2023-04-29T13:42:11;22.10;98.20
1359;DHT22;673;48.098;14.422;2023-04-29T13:44:39;22.30;98.30
1359;DHT22;673;48.098;14.422;2023-04-29T13:47:10;22.80;95.90
1359;DHT22;673;48.098;14.422;2023-04-29T13:49:38;22.50;97.00
1359;DHT22;673;48.098;14.422;2023-04-29T13:52:05;22.20;96.70
1359;DHT22;673;48.098;14.422;2023-04-29T13:54:32;21.30;97.10
1359;DHT22;673;48.098;14.422;2023-04-29T13:56:59;21.10;97.30
1359;DHT22;673;48.098;14.422;2023-04-29T13:59:28;20.80;97.00
1359;DHT22;673;48.098;14.422;2023-04-29T14:01:57;20.50;96.40
1359;DHT22;673;48.098;14.422;2023-04-29T14:04:24;20.50;95.20
1359;DHT22;673;48.098;14.422;2023-04-29T14:06:51;20.30;95.90
1359;DHT22;673;48.098;14.422;2023-04-29T14:09:19;20.30;95.90
1359;DHT22;673;48.098;14.422;2023-04-29T14:11:46;20.90;97.40
1359;DHT22;673;48.098;14.422;2023-04-29T14:14:13;21.20;98.60
1359;DHT22;673;48.098;14.422;2023-04-29T14:16:40;21.50;96.20
1359;DHT22;673;48.098;14.422;2023-04-29T14:19:08;20.90;97.00
1359;DHT22;673;48.098;14.422;2023-04-29T14:21:36;20.70;97.80
1359;DHT22;673;48.098;14.422;2023-04-29T14:24:03;20.40;99.50
1359;DHT22;673;48.098;14.422;2023-04-29T14:26:30;19.80;98.30
1359;DHT22;673;48.098;14.422;2023-04-29T14:28:58;19.70;98.80
1359;DHT22;673;48.098;14.422;2023-04-29T14:31:25;19.40;99.90
1359;DHT22;673;48.098;14.422;2023-04-29T14:33:53;19.20;99.90
1359;DHT22;673;48.098;14.422;2023-04-29T14:36:22;19.20;99.90
1359;DHT22;673;48.098;14.422;2023-04-29T14:38:49;19.10;99.90
1359;DHT22;673;48.098;14.422;2023-04-29T14:41:16;19.00;99.90
1359;DHT22;673;48.098;14.422;2023-04-29T14:43:44;18.90;99.90
1359;DHT22;673;48.098;14.422;2023-04-29T14:46:11;18.90;99.90
1359;DHT22;673;48.098;14.422;2023-04-29T14:48:38;18.90;99.90
1359;DHT22;673;48.098;14.422;2023-04-29T14:51:05;18.80;99.90
1359;DHT22;673;48.098;14.422;2023-04-29T14:53:33;18.90;99.90
1359;DHT22;673;48.098;14.422;2023-04-29T14:56:01;18.80;99.90
1359;DHT22;673;48.098;14.422;2023-04-29T14:58:28;19.00;99.90
1359;DHT22;673;48.098;14.422;2023-04-29T15:00:55;19.10;99.90
1359;DHT22;673;48.098;14.422;2023-04-29T15:03:22;19.10;99.90
1359;DHT22;673;48.098;14.422;2023-04-29T15:05:50;19.30;99.90
1359;DHT22;673;48.098;14.422;2023-04-29T15:08:17;19.10;99.90
1359;DHT22;673;48.098;14.422;2023-04-29T15:10:46;18.90;99.90
1359;DHT22;673;48.098;14.422;2023-04-29T15:13:13;18.90;99.90
1359;DHT22;673;48.098;14.422;2023-04-29T15:15:40;18.80;99.90
1359;DHT22;673;48.098;14.422;2023-04-29T15:18:07;18.70;99.90
1359;DHT22;673;48.098;14.422;2023-04-29T15:20:34;18.80;99.90
1359;DHT22;673;48.098;14.422;2023-04-29T15:23:02;18.40;99.90
1359;DHT22;673;48.098;14.422;2023-04-29T15:25:30;18.20;99.90
1359;DHT22;673;48.098;14.422;2023-04-29T15:27:59;18.20;99.90
1359;DHT22;673;48.098;14.422;2023-04-29T15:30:30;18.10;99.90
1359;DHT22;673;48.098;14.422;2023-04-29T15:32:57;18.00;99.90
1359;DHT22;673;48.098;14.422;2023-04-29T15:35:25;18.00;99.90
1359;DHT22;673;48.098;14.422;2023-04-29T15:37:52;17.90;99.90
1359;DHT22;673;48.098;14.422;2023-04-29T15:40:19;17.90;99.90
1359;DHT22;673;48.098;14.422;2023-04-29T15:42:46;18.30;99.90
1359;DHT22;673;48.098;14.422;2023-04-29T15:45:15;19.20;99.90
1359;DHT22;673;48.098;14.422;2023-04-29T15:47:42;19.80;99.90
1359;DHT22;673;48.098;14.422;2023-04-29T15:50:09;20.10;99.90
1359;DHT22;673;48.098;14.422;2023-04-29T15:52:36;20.00;99.90
1359;DHT22;673;48.098;14.422;2023-04-29T15:55:04;19.40;99.90
1359;DHT22;673;48.098;14.422;2023-04-29T15:57:31;18.50;99.90
1359;DHT22;673;48.098;14.422;2023-04-29T15:59:59;17.90;99.90
1359;DHT22;673;48.098;14.422;2023-04-29T16:02:27;18.10;99.90
1359;DHT22;673;48.098;14.422;2023-04-29T16:04:54;18.60;99.90
1359;DHT22;673;48.098;14.422;2023-04-29T16:07:21;18.80;99.90
1359;DHT22;673;48.098;14.422;2023-04-29T16:09:48;18.80;99.90
1359;DHT22;673;48.098;14.422;2023-04-29T16:12:15;18.50;99.90
1359;DHT22;673;48.098;14.422;2023-04-29T16:14:42;18.30;99.90